Latest Weather Observations for Dubbo

IDN60801

Issued at 7:02 am EDT Tuesday 28 March 2017 (issued every 30 minutes, with the page automatically refreshed every 10 minutes)

About weather observations | Map of weather stations | Latest weather observations for NSW | Other Formats
Station Details ID: 065070 Name: DUBBO AIRPORT AWS Lat: -32.22 Lon: 148.58 Height: 284.0 m
Data from the previous 72 hours. | See also: Recent months at Dubbo
Date/Time
EDT
Temp
°C
App
Temp
°C
Dew
Point
°C
Rel
Hum
%
Delta-T
°C
Wind Press
QNH
hPa
Press
MSL
hPa
Rain since
9am
mm
Dir  Spd
km/h
Gust
km/h
Spd
kts
Gust
kts
28/07:00am 19.6 21.3 18.6 94 0.6 ESE 7 7 4 4 1012.9 1011.7 -
28/06:30am 19.7 21.4 18.5 93 0.8 NNE 7 9 4 5 1012.3 1011.1 -
28/06:00am 20.0 21.8 18.8 93 0.8 NE 7 7 4 4 1012.1 1011.0 -
28/05:30am 19.8 21.2 18.6 93 0.8 ENE 9 11 5 6 1012.1 1011.0 -
28/05:00am 20.0 21.6 18.3 90 1.1 NE 7 9 4 5 1011.9 1010.7 -
28/04:30am 20.7 23.4 18.6 88 1.3 S 2 7 1 4 1011.9 1010.7 -
28/04:00am 21.0 23.0 19.1 89 1.2 SSW 7 11 4 6 1011.7 1010.5 -
28/03:30am 21.3 23.0 19.4 89 1.2 S 9 11 5 6 1011.8 1010.6 -
28/03:00am 21.3 22.6 19.4 89 1.2 SE 11 13 6 7 1011.9 1010.7 0.0
28/02:30am 21.6 23.8 19.3 87 1.5 ESE 6 7 3 4 1012.1 1011.0 -
28/02:00am 21.8 24.0 19.2 85 1.7 ENE 6 7 3 4 1012.1 1011.0 -
28/01:30am 22.3 24.5 19.3 83 1.9 ENE 6 9 3 5 1012.1 1011.0 -
28/01:00am 22.5 25.7 18.9 80 2.3 CALM 0 0 0 0 1012.6 1011.4 -
28/12:30am 22.8 24.9 19.0 79 2.4 E 6 9 3 5 1012.7 1011.5 -
28/12:00am 23.3 24.6 19.2 78 2.6 SSE 11 13 6 7 1012.8 1011.6 -
 
Date/Time
EDT
Temp
°C
App
Temp
°C
Dew
Point
°C
Rel
Hum
%
Delta-T
°C
Wind Press
QNH
hPa
Press
MSL
hPa
Rain since
9am
mm
Dir  Spd
km/h
Gust
km/h
Spd
kts
Gust
kts
27/11:30pm 23.7 25.3 19.2 76 2.9 SSE 9 11 5 6 1012.9 1011.7 -
27/11:00pm 24.5 25.9 19.6 74 3.2 SE 11 15 6 8 1012.7 1011.5 -
27/10:30pm 24.2 25.9 19.3 74 3.2 E 9 15 5 8 1012.5 1011.3 -
27/10:00pm 23.5 24.5 18.6 74 3.1 ENE 11 13 6 7 1012.3 1011.1 -
27/09:30pm 24.7 26.4 18.6 69 3.9 NE 7 9 4 5 1011.8 1010.6 -
27/09:00pm 24.9 26.2 18.4 67 4.2 NE 9 11 5 6 1011.3 1010.1 -
27/08:30pm 25.8 28.0 19.2 67 4.3 NNE 6 7 3 4 1011.0 1009.8 -
27/08:00pm 25.9 27.4 18.8 65 4.6 NNE 9 9 5 5 1010.8 1009.6 -
27/07:30pm 26.6 28.0 18.7 62 5.1 NE 9 13 5 7 1010.6 1009.4 -
27/07:00pm 28.1 29.7 19.1 58 5.9 NNE 9 11 5 6 1010.7 1009.5 -
27/06:30pm 30.5 32.4 18.6 49 7.8 NNE 6 9 3 5 1010.7 1009.5 -
27/06:00pm 31.5 33.1 17.8 44 8.9 NNE 6 9 3 5 1010.9 1009.7 -
27/05:30pm 32.0 33.5 17.5 42 9.4 NNW 6 13 3 7 1011.0 1009.8 -
27/05:00pm 31.8 32.7 18.4 45 8.8 N 11 17 6 9 1011.2 1010.0 -
27/04:30pm 31.7 - 17.9 43 9.0 - - - - - 1011.4 - -
27/04:00pm 31.7 - 17.9 43 9.0 - - - - - 1011.8 1010.6 -
27/03:30pm 31.6 - 18.9 47 8.4 - - - - - 1012.3 1011.1 -
27/01:30pm 30.7 31.7 20.3 53 7.0 N 15 26 8 14 1014.1 1012.9 0.0
27/01:00pm 29.5 30.5 19.5 55 6.6 N 13 22 7 12 1014.7 1013.5 0.0
27/12:30pm 29.2 29.7 19.2 54 6.6 N 15 26 8 14 1015.1 1013.9 0.0
27/12:00pm 28.0 28.1 18.4 56 6.2 N 15 22 8 12 1015.5 1014.4 0.0
27/11:30am 27.3 28.1 19.1 61 5.3 NNE 13 17 7 9 1015.8 1014.7 0.0
27/11:00am 25.7 26.5 19.1 67 4.3 NE 13 19 7 10 1016.1 1014.9 0.0
27/10:30am 24.7 25.1 18.9 70 3.7 NE 15 20 8 11 1016.5 1015.3 0.0
27/10:00am 23.4 22.9 17.8 71 3.5 NE 17 20 9 11 1016.6 1015.4 0.0
27/09:30am 22.3 21.2 17.4 74 3.1 NE 19 22 10 12 1016.7 1015.5 0.0
27/09:00am 21.4 20.1 17.2 77 2.6 NE 20 26 11 14 1016.8 1015.6 0.0
27/08:30am 20.4 18.9 16.8 80 2.2 NE 20 26 11 14 1016.5 1015.3 0.0
27/08:00am 19.7 18.7 16.7 83 1.8 ENE 17 22 9 12 1016.3 1015.1 0.0
27/07:30am 19.0 17.5 16.4 85 1.6 ENE 19 28 10 15 1015.7 1014.6 0.0
27/07:00am 19.1 17.6 16.3 84 1.7 ENE 19 26 10 14 1015.5 1014.4 0.0
27/06:30am 19.4 17.9 16.4 83 1.8 ENE 19 28 10 15 1015.4 1014.3 0.0
27/06:00am 19.4 17.8 16.6 84 1.7 ENE 20 30 11 16 1015.1 1013.9 0.0
27/05:30am 19.6 16.9 16.6 83 1.8 ENE 26 35 14 19 1014.9 1013.7 0.0
27/05:00am 19.7 17.0 16.5 82 1.9 ENE 26 35 14 19 1014.9 1013.7 0.0
27/04:30am 19.8 18.3 16.8 83 1.8 ENE 20 28 11 15 1014.8 1013.6 0.0
27/04:00am 20.1 18.3 16.9 82 2.0 ENE 22 37 12 20 1015.0 1013.8 0.0
27/03:30am 20.5 19.4 17.3 82 2.0 ENE 19 30 10 16 1015.2 1014.0 0.0
27/03:00am 20.8 20.3 17.8 83 1.9 ENE 17 24 9 13 1015.3 1014.2 0.0
27/02:30am 20.9 20.4 17.9 83 1.9 ENE 17 24 9 13 1015.6 1014.5 0.0
27/02:00am 21.0 21.0 18.0 83 1.9 NE 15 26 8 14 1015.8 1014.7 0.0
27/01:30am 21.6 20.7 17.8 79 2.4 NE 19 26 10 14 1015.6 1014.5 0.0
27/01:00am 21.9 21.0 17.7 77 2.6 NE 19 30 10 16 1015.8 1014.7 0.0
27/12:30am 22.2 21.2 17.6 75 2.9 NE 19 28 10 15 1015.8 1014.7 0.0
27/12:00am 22.7 21.6 17.8 74 3.1 NE 20 26 11 14 1015.8 1014.7 0.0
 
Date/Time
EDT
Temp
°C
App
Temp
°C
Dew
Point
°C
Rel
Hum
%
Delta-T
°C
Wind Press
QNH
hPa
Press
MSL
hPa
Rain since
9am
mm
Dir  Spd
km/h
Gust
km/h
Spd
kts
Gust
kts
26/11:30pm 22.9 22.1 18.0 74 3.1 NE 19 26 10 14 1016.1 1014.9 0.0
26/11:00pm 22.8 22.8 18.1 75 3.0 NE 15 20 8 11 1016.1 1014.9 0.0
26/10:30pm 23.4 23.2 18.5 74 3.1 NE 17 24 9 13 1015.8 1014.7 0.0
26/10:00pm 23.2 23.8 18.7 76 2.9 NE 13 17 7 9 1015.7 1014.6 0.0
26/09:30pm 23.3 24.6 18.4 74 3.1 NE 9 13 5 7 1015.2 1014.0 0.0
26/09:00pm 23.6 24.5 18.3 72 3.4 NE 11 15 6 8 1014.8 1013.6 0.0
26/08:30pm 24.5 26.0 18.9 71 3.6 ENE 9 9 5 5 1014.4 1013.2 0.0
26/08:00pm 25.1 27.4 19.9 73 3.4 ENE 7 7 4 4 1013.9 1012.7 0.0
26/07:30pm 26.2 27.8 18.3 61 5.1 E 7 7 4 4 1013.7 1012.5 0.0
26/07:00pm 27.3 28.8 18.9 60 5.5 ESE 9 9 5 5 1013.3 1012.1 0.0
26/06:30pm 29.4 30.6 18.2 51 7.2 SE 9 13 5 7 1013.2 1012.0 0.0
26/06:00pm 29.3 30.3 16.8 47 7.9 SE 7 11 4 6 1013.0 1011.8 0.0
26/05:30pm 30.8 30.5 16.4 42 9.1 E 13 17 7 9 1012.6 1011.4 0.0
26/05:00pm 31.1 32.0 18.5 47 8.2 ESE 11 17 6 9 1012.6 1011.4 0.0
26/04:30pm 30.9 31.4 18.3 47 8.2 ESE 13 20 7 11 1012.6 1011.4 0.0
26/04:00pm 30.8 31.5 17.1 43 8.8 SSE 9 17 5 9 1012.8 1011.6 0.0
26/03:30pm 30.8 32.6 18.2 47 8.2 SE 6 13 3 7 1013.0 1011.8 0.0
26/03:00pm 30.7 32.5 17.4 45 8.5 NE 4 11 2 6 1013.3 1012.1 0.0
26/02:30pm 30.1 31.2 17.9 48 7.9 E 9 13 5 7 1013.4 1012.2 0.0
26/02:00pm 29.5 31.6 20.1 57 6.2 E 9 13 5 7 1013.7 1012.5 0.0
26/01:30pm 29.2 31.0 19.5 56 6.4 ENE 9 13 5 7 1014.2 1013.0 0.0
26/01:00pm 28.7 30.7 18.8 55 6.4 S 6 13 3 7 1014.7 1013.5 0.0
26/12:30pm 28.7 31.2 20.2 60 5.6 ENE 7 9 4 5 1015.1 1013.9 0.0
26/12:00pm 28.1 30.3 20.4 63 5.1 ENE 9 15 5 8 1015.3 1014.2 0.0
26/11:30am 27.0 29.0 20.8 69 4.1 E 11 19 6 10 1015.5 1014.4 0.0
26/11:00am 26.0 27.5 21.2 75 3.2 NE 15 20 8 11 1015.5 1014.4 0.0
26/10:30am 25.3 27.6 21.4 79 2.6 NE 11 15 6 8 1015.6 1014.5 0.0
26/10:00am 24.3 26.0 21.0 82 2.2 NE 13 17 7 9 1015.7 1014.6 0.0
26/09:30am 23.6 25.3 20.9 85 1.8 NE 13 15 7 8 1015.7 1014.6 0.0
26/09:00am 22.5 24.3 20.4 88 1.4 E 11 17 6 9 1015.6 1014.5 21.4
26/08:30am 21.6 22.9 20.2 92 0.9 E 13 15 7 8 1015.3 1014.2 21.4
26/08:00am 20.8 22.8 20.0 95 0.5 ESE 9 13 5 7 1015.1 1013.9 21.4
26/07:30am 20.4 22.3 19.7 96 0.5 ESE 9 13 5 7 1014.8 1013.6 21.4
26/07:00am 20.4 21.9 19.7 96 0.5 ESE 11 15 6 8 1014.4 1013.2 21.4
26/06:30am 20.4 21.8 19.6 95 0.5 E 11 15 6 8 1014.1 1012.9 21.4
26/06:00am 20.5 22.4 19.7 95 0.5 E 9 13 5 7 1013.8 1012.6 21.4
26/05:30am 20.7 22.7 20.0 96 0.5 ENE 9 13 5 7 1013.7 1012.5 21.4
26/05:00am 20.7 22.7 20.0 96 0.5 ENE 9 13 5 7 1013.5 1012.3 21.4
26/04:30am 20.8 22.5 20.1 96 0.5 E 11 13 6 7 1013.4 1012.2 21.4
26/04:00am 20.6 22.6 19.9 96 0.5 NE 9 11 5 6 1013.5 1012.3 21.4
26/03:30am 20.5 22.4 19.8 96 0.5 ENE 9 13 5 7 1013.7 1012.5 21.4
26/03:00am 20.4 21.5 19.7 96 0.5 E 13 17 7 9 1013.9 1012.7 21.4
26/02:30am 20.7 22.7 20.0 96 0.5 NNE 9 11 5 6 1014.3 1013.1 21.2
26/02:00am 20.7 22.3 19.9 95 0.5 NNE 11 15 6 8 1014.1 1012.9 21.2
26/01:30am 21.3 23.6 20.6 96 0.5 NNW 9 11 5 6 1014.4 1013.2 21.2
26/01:07am 21.6 23.7 20.9 96 0.5 NNE 11 13 6 7 1014.4 1013.2 21.2
26/01:00am 21.4 22.9 20.6 95 0.5 NNE 13 19 7 10 1014.5 1013.3 21.2
26/12:41am 21.1 24.4 19.9 93 0.8 W 2 11 1 6 1015.0 1013.8 16.4
26/12:30am 20.8 23.9 19.5 92 0.8 SE 2 9 1 5 1014.5 1013.3 15.8
26/12:10am 20.5 21.6 18.8 90 1.1 E 11 17 6 9 1014.7 1013.5 15.8
26/12:00am 20.4 19.6 18.5 89 1.2 NE 20 32 11 17 1014.4 1013.2 15.8
 
Date/Time
EDT
Temp
°C
App
Temp
°C
Dew
Point
°C
Rel
Hum
%
Delta-T
°C
Wind Press
QNH
hPa
Press
MSL
hPa
Rain since
9am
mm
Dir  Spd
km/h
Gust
km/h
Spd
kts
Gust
kts
25/11:49pm 20.1 18.5 17.5 85 1.6 W 22 74 12 40 1015.7 1014.6 12.0
25/11:47pm 19.9 17.8 16.3 80 2.2 NNW 22 74 12 40 1016.1 1014.9 7.6
25/11:46pm 22.2 22.0 19.4 84 1.8 N 19 54 10 29 1016.1 1014.9 4.8
25/11:45pm 22.1 21.8 18.3 79 2.4 NNE 17 50 9 27 1015.6 1014.5 2.6
25/11:30pm 24.9 25.1 20.6 77 2.8 NNE 20 32 11 17 1014.3 1013.1 0.0
25/11:24pm 24.3 24.6 20.8 81 2.3 N 20 33 11 18 1014.4 1013.2 0.0
25/11:04pm 24.4 25.7 20.9 81 2.3 E 15 17 8 9 1013.9 1012.7 0.0
25/11:00pm 24.4 25.7 20.9 81 2.3 E 15 17 8 9 1013.9 1012.7 0.0
25/10:30pm 25.3 26.2 20.8 76 3.0 SE 17 20 9 11 1013.7 1012.5 0.0
25/10:00pm 26.1 27.5 21.1 74 3.3 SE 15 17 8 9 1013.5 1012.3 0.0
25/09:30pm 25.5 27.8 21.4 78 2.7 SE 11 13 6 7 1013.2 1012.0 0.0
25/09:00pm 25.4 28.2 20.9 76 3.0 ENE 7 9 4 5 1012.9 1011.7 0.0
25/08:30pm 25.2 29.7 21.5 80 2.5 CALM 0 0 0 0 1012.6 1011.4 0.0
25/08:00pm 25.4 29.3 20.4 74 3.3 CALM 0 0 0 0 1012.3 1011.1 0.0
25/07:30pm 26.7 30.7 20.5 69 4.1 CALM 0 0 0 0 1012.3 1011.1 0.0
25/07:00pm 28.3 32.3 20.6 63 5.1 CALM 0 4 0 2 1012.1 1011.0 0.0
25/06:30pm 29.9 31.6 20.2 56 6.5 WSW 11 13 6 7 1011.8 1010.6 0.0
25/06:00pm 30.6 31.2 20.2 53 6.9 W 17 20 9 11 1011.8 1010.6 0.0
25/05:30pm 29.7 31.6 19.7 55 6.6 W 9 13 5 7 1011.9 1010.7 0.0
25/05:00pm 30.8 31.7 20.1 53 7.1 WNW 15 20 8 11 1011.7 1010.5 0.0
25/04:30pm 31.2 31.7 20.8 54 7.0 WNW 19 28 10 15 1011.8 1010.6 0.0
25/04:00pm 30.3 29.6 19.6 52 7.1 WNW 22 28 12 15 1012.1 1011.0 0.0
25/03:30pm 30.3 29.8 19.0 50 7.4 WNW 20 28 11 15 1012.6 1011.4 0.0
25/03:00pm 29.9 29.1 19.3 53 7.0 NW 22 32 12 17 1012.9 1011.7 0.0
25/02:30pm 30.2 30.2 20.2 55 6.7 NW 20 32 11 17 1013.3 1012.1 0.0
25/02:00pm 30.0 29.4 19.7 54 6.8 NW 22 32 12 17 1013.7 1012.5 0.0
25/01:30pm 28.9 28.2 18.7 54 6.6 NNW 20 30 11 16 1014.2 1013.0 0.0
25/01:00pm 28.0 28.0 19.0 58 5.9 N 17 26 9 14 1014.8 1013.6 0.0
25/12:30pm 26.8 26.8 18.1 59 5.6 NNE 15 20 8 11 1015.5 1014.4 0.0
25/12:00pm 26.3 25.6 17.4 58 5.6 N 17 24 9 13 1016.1 1014.9 0.0
25/11:30am 24.8 24.5 17.3 63 4.7 NNE 15 24 8 13 1016.5 1015.3 0.0
25/11:00am 23.4 22.7 16.4 64 4.3 NE 15 20 8 11 1016.9 1015.7 0.0
25/10:30am 21.5 19.5 15.6 69 3.6 NE 20 26 11 14 1017.0 1015.8 0.0
25/10:00am 20.6 18.5 15.2 71 3.2 NE 20 28 11 15 1017.0 1015.8 0.0
25/09:30am 20.7 18.5 15.9 74 2.9 NE 22 33 12 18 1017.2 1016.0 0.0
25/09:00am 18.9 16.0 15.0 78 2.3 NE 24 33 13 18 1017.0 1015.8 0.0
25/08:30am 18.1 15.5 15.0 82 1.8 ENE 22 28 12 15 1016.8 1015.6 0.0
25/08:00am 17.8 15.1 14.7 82 1.8 NE 22 32 12 17 1016.5 1015.3 0.0
25/07:30am 17.3 15.1 14.9 86 1.4 ENE 20 28 11 15 1016.6 1015.4 0.0

Other Formats:

Comma delimited format used in spreadsheet applications
http://www.bom.gov.au/fwo/IDN60801/IDN60801.95719.axf

JavaScript Object Notation format (JSON) in row-major order
http://www.bom.gov.au/fwo/IDN60801/IDN60801.95719.json